sensor_id;sensor_type;location;lat;lon;timestamp;temperature;humidity
55203;DHT22;41077;52.956;6.796;2023-03-25T00:02:21;10.40;99.90
55203;DHT22;41077;52.956;6.796;2023-03-25T00:04:51;10.30;99.90
55203;DHT22;41077;52.956;6.796;2023-03-25T00:07:17;10.40;99.90
55203;DHT22;41077;52.956;6.796;2023-03-25T00:09:43;10.40;99.90
55203;DHT22;41077;52.956;6.796;2023-03-25T00:12:09;10.30;99.90
55203;DHT22;41077;52.956;6.796;2023-03-25T00:14:35;10.40;99.90
55203;DHT22;41077;52.956;6.796;2023-03-25T00:17:00;10.40;99.90
55203;DHT22;41077;52.956;6.796;2023-03-25T00:19:26;10.40;99.90
55203;DHT22;41077;52.956;6.796;2023-03-25T00:21:52;10.40;99.90
55203;DHT22;41077;52.956;6.796;2023-03-25T00:24:18;10.40;99.90
55203;DHT22;41077;52.956;6.796;2023-03-25T00:26:47;10.50;99.90
55203;DHT22;41077;52.956;6.796;2023-03-25T00:29:13;10.50;99.90
55203;DHT22;41077;52.956;6.796;2023-03-25T00:31:39;10.60;99.90
55203;DHT22;41077;52.956;6.796;2023-03-25T00:34:06;10.60;99.90
55203;DHT22;41077;52.956;6.796;2023-03-25T00:36:31;10.60;99.90
55203;DHT22;41077;52.956;6.796;2023-03-25T00:38:57;10.60;99.90
55203;DHT22;41077;52.956;6.796;2023-03-25T00:41:23;10.50;99.90
55203;DHT22;41077;52.956;6.796;2023-03-25T00:43:56;10.50;99.90
55203;DHT22;41077;52.956;6.796;2023-03-25T00:46:22;10.50;99.90
55203;DHT22;41077;52.956;6.796;2023-03-25T00:48:48;10.50;99.90
55203;DHT22;41077;52.956;6.796;2023-03-25T00:51:15;10.50;99.90
55203;DHT22;41077;52.956;6.796;2023-03-25T00:53:46;10.50;99.90
55203;DHT22;41077;52.956;6.796;2023-03-25T00:56:12;10.50;99.90
55203;DHT22;41077;52.956;6.796;2023-03-25T00:58:37;10.50;99.90
55203;DHT22;41077;52.956;6.796;2023-03-25T01:01:07;10.50;99.90
55203;DHT22;41077;52.956;6.796;2023-03-25T01:03:35;10.40;99.90
55203;DHT22;41077;52.956;6.796;2023-03-25T01:06:01;10.20;99.90
55203;DHT22;41077;52.956;6.796;2023-03-25T01:08:27;10.10;99.90
55203;DHT22;41077;52.956;6.796;2023-03-25T01:10:54;10.00;99.90
55203;DHT22;41077;52.956;6.796;2023-03-25T01:13:20;10.00;99.90
55203;DHT22;41077;52.956;6.796;2023-03-25T01:15:46;9.80;99.90
55203;DHT22;41077;52.956;6.796;2023-03-25T01:18:12;9.70;99.90
55203;DHT22;41077;52.956;6.796;2023-03-25T01:20:38;9.60;99.90
55203;DHT22;41077;52.956;6.796;2023-03-25T01:23:03;9.50;99.90
55203;DHT22;41077;52.956;6.796;2023-03-25T01:25:29;9.50;99.90
55203;DHT22;41077;52.956;6.796;2023-03-25T01:27:54;9.40;99.90
55203;DHT22;41077;52.956;6.796;2023-03-25T01:30:20;9.40;99.90
55203;DHT22;41077;52.956;6.796;2023-03-25T01:32:46;9.20;99.90
55203;DHT22;41077;52.956;6.796;2023-03-25T01:35:11;9.20;99.90
55203;DHT22;41077;52.956;6.796;2023-03-25T01:37:37;9.20;99.90
55203;DHT22;41077;52.956;6.796;2023-03-25T01:40:03;9.10;99.90
55203;DHT22;41077;52.956;6.796;2023-03-25T01:42:33;9.10;99.90
55203;DHT22;41077;52.956;6.796;2023-03-25T01:45:22;9.00;99.90
55203;DHT22;41077;52.956;6.796;2023-03-25T01:47:48;9.00;99.90
55203;DHT22;41077;52.956;6.796;2023-03-25T01:50:17;9.00;99.90
55203;DHT22;41077;52.956;6.796;2023-03-25T01:52:44;8.90;99.90
55203;DHT22;41077;52.956;6.796;2023-03-25T01:55:11;8.90;99.90
55203;DHT22;41077;52.956;6.796;2023-03-25T01:57:38;8.90;99.90
55203;DHT22;41077;52.956;6.796;2023-03-25T02:00:06;8.90;99.90
55203;DHT22;41077;52.956;6.796;2023-03-25T02:02:33;8.90;99.90
55203;DHT22;41077;52.956;6.796;2023-03-25T02:05:02;9.10;99.90
55203;DHT22;41077;52.956;6.796;2023-03-25T02:07:33;9.00;99.90
55203;DHT22;41077;52.956;6.796;2023-03-25T02:10:00;9.00;99.90
55203;DHT22;41077;52.956;6.796;2023-03-25T02:12:27;9.00;99.90
55203;DHT22;41077;52.956;6.796;2023-03-25T02:14:52;9.10;99.90
55203;DHT22;41077;52.956;6.796;2023-03-25T02:22:48;9.20;99.90
55203;DHT22;41077;52.956;6.796;2023-03-25T02:27:56;9.10;99.90
55203;DHT22;41077;52.956;6.796;2023-03-25T02:35:24;9.10;99.90
55203;DHT22;41077;52.956;6.796;2023-03-25T02:40:21;9.00;99.90
55203;DHT22;41077;52.956;6.796;2023-03-25T02:42:52;9.00;99.90
55203;DHT22;41077;52.956;6.796;2023-03-25T02:47:48;9.00;99.90
55203;DHT22;41077;52.956;6.796;2023-03-25T02:50:16;9.00;99.90
55203;DHT22;41077;52.956;6.796;2023-03-25T02:52:48;9.00;99.90
55203;DHT22;41077;52.956;6.796;2023-03-25T02:55:16;8.90;99.90
55203;DHT22;41077;52.956;6.796;2023-03-25T02:57:43;9.00;99.90
55203;DHT22;41077;52.956;6.796;2023-03-25T03:00:10;8.90;99.90
55203;DHT22;41077;52.956;6.796;2023-03-25T03:02:58;9.00;99.90
55203;DHT22;41077;52.956;6.796;2023-03-25T03:05:25;9.00;99.90
55203;DHT22;41077;52.956;6.796;2023-03-25T03:07:53;8.90;99.90
55203;DHT22;41077;52.956;6.796;2023-03-25T03:10:21;8.90;99.90
55203;DHT22;41077;52.956;6.796;2023-03-25T03:17:48;8.90;99.90
55203;DHT22;41077;52.956;6.796;2023-03-25T03:20:20;8.90;99.90
55203;DHT22;41077;52.956;6.796;2023-03-25T03:28:22;8.90;99.90
55203;DHT22;41077;52.956;6.796;2023-03-25T03:30:56;8.80;99.90
55203;DHT22;41077;52.956;6.796;2023-03-25T03:33:31;8.90;99.90
55203;DHT22;41077;52.956;6.796;2023-03-25T03:36:11;8.90;99.90
55203;DHT22;41077;52.956;6.796;2023-03-25T03:38:58;8.90;99.90
55203;DHT22;41077;52.956;6.796;2023-03-25T03:41:26;8.90;99.90
55203;DHT22;41077;52.956;6.796;2023-03-25T03:43:54;8.80;99.90
55203;DHT22;41077;52.956;6.796;2023-03-25T03:46:21;8.80;99.90
55203;DHT22;41077;52.956;6.796;2023-03-25T03:48:53;8.80;99.90
55203;DHT22;41077;52.956;6.796;2023-03-25T03:51:24;8.80;99.90
55203;DHT22;41077;52.956;6.796;2023-03-25T03:54:00;8.80;99.90
55203;DHT22;41077;52.956;6.796;2023-03-25T03:56:38;8.80;99.90
55203;DHT22;41077;52.956;6.796;2023-03-25T03:59:12;8.90;99.90
55203;DHT22;41077;52.956;6.796;2023-03-25T04:01:43;8.80;99.90
55203;DHT22;41077;52.956;6.796;2023-03-25T04:04:12;8.80;99.90
55203;DHT22;41077;52.956;6.796;2023-03-25T04:06:39;8.90;99.90
55203;DHT22;41077;52.956;6.796;2023-03-25T04:11:43;8.80;99.90
55203;DHT22;41077;52.956;6.796;2023-03-25T04:14:11;8.90;99.90
55203;DHT22;41077;52.956;6.796;2023-03-25T04:16:37;8.90;99.90
55203;DHT22;41077;52.956;6.796;2023-03-25T04:19:03;8.80;99.90
55203;DHT22;41077;52.956;6.796;2023-03-25T04:21:30;8.80;99.90
55203;DHT22;41077;52.956;6.796;2023-03-25T04:23:55;8.90;99.90
55203;DHT22;41077;52.956;6.796;2023-03-25T04:26:26;8.90;99.90
55203;DHT22;41077;52.956;6.796;2023-03-25T04:28:52;8.90;99.90
55203;DHT22;41077;52.956;6.796;2023-03-25T04:31:17;8.90;99.90
55203;DHT22;41077;52.956;6.796;2023-03-25T04:33:43;8.90;99.90
55203;DHT22;41077;52.956;6.796;2023-03-25T04:36:13;8.90;99.90
55203;DHT22;41077;52.956;6.796;2023-03-25T04:38:38;8.80;99.90
55203;DHT22;41077;52.956;6.796;2023-03-25T04:41:05;8.90;99.90
55203;DHT22;41077;52.956;6.796;2023-03-25T04:43:31;8.80;99.90
55203;DHT22;41077;52.956;6.796;2023-03-25T04:45:57;8.80;99.90
55203;DHT22;41077;52.956;6.796;2023-03-25T04:48:30;8.80;99.90
55203;DHT22;41077;52.956;6.796;2023-03-25T04:50:58;8.80;99.90
55203;DHT22;41077;52.956;6.796;2023-03-25T04:53:25;8.70;99.90
55203;DHT22;41077;52.956;6.796;2023-03-25T04:55:51;8.70;99.90
55203;DHT22;41077;52.956;6.796;2023-03-25T04:58:17;8.60;99.90
55203;DHT22;41077;52.956;6.796;2023-03-25T05:00:43;8.60;99.90
55203;DHT22;41077;52.956;6.796;2023-03-25T05:03:09;8.60;99.90
55203;DHT22;41077;52.956;6.796;2023-03-25T05:05:35;8.60;99.90
55203;DHT22;41077;52.956;6.796;2023-03-25T05:08:02;8.60;99.90
55203;DHT22;41077;52.956;6.796;2023-03-25T05:10:27;8.60;99.90
55203;DHT22;41077;52.956;6.796;2023-03-25T05:12:57;8.60;99.90
55203;DHT22;41077;52.956;6.796;2023-03-25T05:15:23;8.60;99.90
55203;DHT22;41077;52.956;6.796;2023-03-25T05:17:48;8.60;99.90
55203;DHT22;41077;52.956;6.796;2023-03-25T05:20:14;8.60;99.90
55203;DHT22;41077;52.956;6.796;2023-03-25T05:22:40;8.60;99.90
55203;DHT22;41077;52.956;6.796;2023-03-25T05:25:07;8.50;99.90
55203;DHT22;41077;52.956;6.796;2023-03-25T05:27:33;8.60;99.90
55203;DHT22;41077;52.956;6.796;2023-03-25T05:29:59;8.50;99.90
55203;DHT22;41077;52.956;6.796;2023-03-25T05:32:25;8.50;99.90
55203;DHT22;41077;52.956;6.796;2023-03-25T05:34:57;8.60;99.90
55203;DHT22;41077;52.956;6.796;2023-03-25T05:37:22;8.70;99.90
55203;DHT22;41077;52.956;6.796;2023-03-25T05:39:48;8.60;99.90
55203;DHT22;41077;52.956;6.796;2023-03-25T05:42:14;8.50;99.90
55203;DHT22;41077;52.956;6.796;2023-03-25T05:44:40;8.50;99.90
55203;DHT22;41077;52.956;6.796;2023-03-25T05:47:21;8.50;99.90
55203;DHT22;41077;52.956;6.796;2023-03-25T05:49:47;8.50;99.90
55203;DHT22;41077;52.956;6.796;2023-03-25T05:52:14;8.50;99.90
55203;DHT22;41077;52.956;6.796;2023-03-25T05:54:41;8.40;99.90
55203;DHT22;41077;52.956;6.796;2023-03-25T05:57:07;8.50;99.90
55203;DHT22;41077;52.956;6.796;2023-03-25T05:59:33;8.50;99.90
55203;DHT22;41077;52.956;6.796;2023-03-25T06:02:04;8.40;99.90
55203;DHT22;41077;52.956;6.796;2023-03-25T06:04:29;8.50;99.90
55203;DHT22;41077;52.956;6.796;2023-03-25T06:06:58;8.50;99.90
55203;DHT22;41077;52.956;6.796;2023-03-25T06:09:23;8.50;99.90
55203;DHT22;41077;52.956;6.796;2023-03-25T06:11:49;8.50;99.90
55203;DHT22;41077;52.956;6.796;2023-03-25T06:14:17;8.60;99.90
55203;DHT22;41077;52.956;6.796;2023-03-25T06:16:43;8.60;99.90
55203;DHT22;41077;52.956;6.796;2023-03-25T06:19:09;8.60;99.90
55203;DHT22;41077;52.956;6.796;2023-03-25T06:21:34;8.60;99.90
55203;DHT22;41077;52.956;6.796;2023-03-25T06:24:00;8.60;99.90
55203;DHT22;41077;52.956;6.796;2023-03-25T06:26:26;8.60;99.90
55203;DHT22;41077;52.956;6.796;2023-03-25T06:28:51;8.50;99.90
55203;DHT22;41077;52.956;6.796;2023-03-25T06:31:18;8.60;99.90
55203;DHT22;41077;52.956;6.796;2023-03-25T06:33:45;8.60;99.90
55203;DHT22;41077;52.956;6.796;2023-03-25T06:36:12;8.70;99.90
55203;DHT22;41077;52.956;6.796;2023-03-25T06:38:38;8.60;99.90
55203;DHT22;41077;52.956;6.796;2023-03-25T06:41:04;8.70;99.90
55203;DHT22;41077;52.956;6.796;2023-03-25T06:43:31;8.70;99.90
55203;DHT22;41077;52.956;6.796;2023-03-25T06:45:57;8.60;99.90
55203;DHT22;41077;52.956;6.796;2023-03-25T06:48:23;8.60;99.90
55203;DHT22;41077;52.956;6.796;2023-03-25T06:50:49;8.50;99.90
55203;DHT22;41077;52.956;6.796;2023-03-25T06:53:15;8.50;99.90
55203;DHT22;41077;52.956;6.796;2023-03-25T06:55:41;8.50;99.90
55203;DHT22;41077;52.956;6.796;2023-03-25T06:58:06;8.40;99.90
55203;DHT22;41077;52.956;6.796;2023-03-25T07:00:32;8.50;99.90
55203;DHT22;41077;52.956;6.796;2023-03-25T07:02:57;8.50;99.90
55203;DHT22;41077;52.956;6.796;2023-03-25T07:05:23;8.60;99.90
55203;DHT22;41077;52.956;6.796;2023-03-25T07:07:49;8.60;99.90
55203;DHT22;41077;52.956;6.796;2023-03-25T07:10:15;8.60;99.90
55203;DHT22;41077;52.956;6.796;2023-03-25T07:12:40;8.70;99.90
55203;DHT22;41077;52.956;6.796;2023-03-25T07:15:06;8.80;99.90
55203;DHT22;41077;52.956;6.796;2023-03-25T07:17:32;8.80;99.90
55203;DHT22;41077;52.956;6.796;2023-03-25T07:19:58;8.80;99.90
55203;DHT22;41077;52.956;6.796;2023-03-25T07:22:23;8.90;99.90
55203;DHT22;41077;52.956;6.796;2023-03-25T07:24:49;8.90;99.90
55203;DHT22;41077;52.956;6.796;2023-03-25T07:27:16;8.90;99.90
55203;DHT22;41077;52.956;6.796;2023-03-25T07:29:42;9.00;99.90
55203;DHT22;41077;52.956;6.796;2023-03-25T07:32:08;9.00;99.90
55203;DHT22;41077;52.956;6.796;2023-03-25T07:34:33;9.00;99.90
55203;DHT22;41077;52.956;6.796;2023-03-25T07:36:59;9.10;99.90
55203;DHT22;41077;52.956;6.796;2023-03-25T07:39:24;9.20;99.90
55203;DHT22;41077;52.956;6.796;2023-03-25T07:41:51;9.20;99.90
55203;DHT22;41077;52.956;6.796;2023-03-25T07:44:17;9.30;99.90
55203;DHT22;41077;52.956;6.796;2023-03-25T07:46:45;9.20;99.90
55203;DHT22;41077;52.956;6.796;2023-03-25T07:49:10;9.20;99.90
55203;DHT22;41077;52.956;6.796;2023-03-25T07:51:36;9.20;99.90
55203;DHT22;41077;52.956;6.796;2023-03-25T07:54:01;9.20;99.90
55203;DHT22;41077;52.956;6.796;2023-03-25T07:56:27;9.10;99.90
55203;DHT22;41077;52.956;6.796;2023-03-25T07:58:53;9.10;99.90
55203;DHT22;41077;52.956;6.796;2023-03-25T08:01:18;9.10;99.90
55203;DHT22;41077;52.956;6.796;2023-03-25T08:03:44;8.90;99.90
55203;DHT22;41077;52.956;6.796;2023-03-25T08:06:09;8.90;99.90
55203;DHT22;41077;52.956;6.796;2023-03-25T08:08:35;8.90;99.90
55203;DHT22;41077;52.956;6.796;2023-03-25T08:11:01;8.80;99.90
55203;DHT22;41077;52.956;6.796;2023-03-25T08:13:26;8.80;99.90
55203;DHT22;41077;52.956;6.796;2023-03-25T08:15:52;8.80;99.90
55203;DHT22;41077;52.956;6.796;2023-03-25T08:18:18;8.90;99.90
55203;DHT22;41077;52.956;6.796;2023-03-25T08:20:43;8.90;99.90
55203;DHT22;41077;52.956;6.796;2023-03-25T08:23:09;8.90;99.90
55203;DHT22;41077;52.956;6.796;2023-03-25T08:25:37;8.90;99.90
55203;DHT22;41077;52.956;6.796;2023-03-25T08:28:03;8.90;99.90
55203;DHT22;41077;52.956;6.796;2023-03-25T08:30:29;8.90;99.90
55203;DHT22;41077;52.956;6.796;2023-03-25T08:32:54;8.80;99.90
55203;DHT22;41077;52.956;6.796;2023-03-25T08:35:21;8.70;99.90
55203;DHT22;41077;52.956;6.796;2023-03-25T08:37:47;8.70;99.90
55203;DHT22;41077;52.956;6.796;2023-03-25T08:40:13;8.70;99.90
55203;DHT22;41077;52.956;6.796;2023-03-25T08:42:41;8.70;99.90
55203;DHT22;41077;52.956;6.796;2023-03-25T08:45:07;8.70;99.90
55203;DHT22;41077;52.956;6.796;2023-03-25T08:47:33;8.70;99.90
55203;DHT22;41077;52.956;6.796;2023-03-25T08:49:58;8.90;99.90
55203;DHT22;41077;52.956;6.796;2023-03-25T08:52:25;9.00;99.90
55203;DHT22;41077;52.956;6.796;2023-03-25T08:54:50;9.10;99.90
55203;DHT22;41077;52.956;6.796;2023-03-25T08:57:16;9.20;99.90
55203;DHT22;41077;52.956;6.796;2023-03-25T08:59:42;9.20;99.90
55203;DHT22;41077;52.956;6.796;2023-03-25T09:02:11;9.40;99.90
55203;DHT22;41077;52.956;6.796;2023-03-25T09:04:37;9.30;99.90
55203;DHT22;41077;52.956;6.796;2023-03-25T09:07:04;9.20;99.90
55203;DHT22;41077;52.956;6.796;2023-03-25T09:09:29;9.30;99.90
55203;DHT22;41077;52.956;6.796;2023-03-25T09:11:55;9.20;99.90
55203;DHT22;41077;52.956;6.796;2023-03-25T09:14:21;9.20;99.90
55203;DHT22;41077;52.956;6.796;2023-03-25T09:16:46;9.20;99.90
55203;DHT22;41077;52.956;6.796;2023-03-25T09:19:12;9.20;99.90
55203;DHT22;41077;52.956;6.796;2023-03-25T09:21:37;9.20;99.90
55203;DHT22;41077;52.956;6.796;2023-03-25T09:24:03;9.30;99.90
55203;DHT22;41077;52.956;6.796;2023-03-25T09:26:29;9.30;99.90
55203;DHT22;41077;52.956;6.796;2023-03-25T09:28:56;9.40;99.90
55203;DHT22;41077;52.956;6.796;2023-03-25T09:31:22;9.50;99.90
55203;DHT22;41077;52.956;6.796;2023-03-25T09:33:48;9.50;99.90
55203;DHT22;41077;52.956;6.796;2023-03-25T09:36:13;9.70;99.90
55203;DHT22;41077;52.956;6.796;2023-03-25T09:38:39;9.70;99.90
55203;DHT22;41077;52.956;6.796;2023-03-25T09:41:15;9.70;99.90
55203;DHT22;41077;52.956;6.796;2023-03-25T09:46:10;10.00;99.90
55203;DHT22;41077;52.956;6.796;2023-03-25T09:48:36;10.10;99.90
55203;DHT22;41077;52.956;6.796;2023-03-25T09:51:08;10.30;99.90
55203;DHT22;41077;52.956;6.796;2023-03-25T09:53:42;10.20;99.90
55203;DHT22;41077;52.956;6.796;2023-03-25T09:56:17;10.20;99.90
55203;DHT22;41077;52.956;6.796;2023-03-25T09:58:45;10.20;99.90
55203;DHT22;41077;52.956;6.796;2023-03-25T10:01:22;10.00;99.90
55203;DHT22;41077;52.956;6.796;2023-03-25T10:06:19;9.70;99.90
55203;DHT22;41077;52.956;6.796;2023-03-25T10:11:13;9.50;99.90
55203;DHT22;41077;52.956;6.796;2023-03-25T10:13:47;9.50;99.90
55203;DHT22;41077;52.956;6.796;2023-03-25T10:23:54;9.60;99.90
55203;DHT22;41077;52.956;6.796;2023-03-25T10:26:27;9.70;99.90
55203;DHT22;41077;52.956;6.796;2023-03-25T10:29:02;9.80;99.90
55203;DHT22;41077;52.956;6.796;2023-03-25T10:31:30;9.80;99.90
55203;DHT22;41077;52.956;6.796;2023-03-25T10:33:58;9.90;99.90
55203;DHT22;41077;52.956;6.796;2023-03-25T10:36:27;10.00;99.90
55203;DHT22;41077;52.956;6.796;2023-03-25T10:38:55;10.00;99.90
55203;DHT22;41077;52.956;6.796;2023-03-25T10:41:25;10.00;99.90
55203;DHT22;41077;52.956;6.796;2023-03-25T10:43:51;10.00;99.90
55203;DHT22;41077;52.956;6.796;2023-03-25T10:46:23;10.00;99.90
55203;DHT22;41077;52.956;6.796;2023-03-25T10:48:49;10.00;99.90
55203;DHT22;41077;52.956;6.796;2023-03-25T10:51:15;9.90;99.90
55203;DHT22;41077;52.956;6.796;2023-03-25T10:53:42;9.90;99.90
55203;DHT22;41077;52.956;6.796;2023-03-25T10:56:14;9.90;99.90
55203;DHT22;41077;52.956;6.796;2023-03-25T10:58:42;9.90;99.90
55203;DHT22;41077;52.956;6.796;2023-03-25T11:01:14;10.00;99.90
55203;DHT22;41077;52.956;6.796;2023-03-25T11:03:42;10.20;99.90
55203;DHT22;41077;52.956;6.796;2023-03-25T11:06:30;10.30;99.90
55203;DHT22;41077;52.956;6.796;2023-03-25T11:09:09;10.40;99.90
55203;DHT22;41077;52.956;6.796;2023-03-25T11:11:36;10.50;99.90
55203;DHT22;41077;52.956;6.796;2023-03-25T11:14:02;10.60;99.90
55203;DHT22;41077;52.956;6.796;2023-03-25T11:16:31;10.60;99.90
55203;DHT22;41077;52.956;6.796;2023-03-25T11:19:01;10.50;99.90
55203;DHT22;41077;52.956;6.796;2023-03-25T11:21:31;10.60;99.90
55203;DHT22;41077;52.956;6.796;2023-03-25T11:23:57;10.70;99.90
55203;DHT22;41077;52.956;6.796;2023-03-25T11:26:26;10.60;99.90
55203;DHT22;41077;52.956;6.796;2023-03-25T11:28:59;10.60;99.90
55203;DHT22;41077;52.956;6.796;2023-03-25T11:31:26;10.50;99.90
55203;DHT22;41077;52.956;6.796;2023-03-25T11:36:39;10.70;99.90
55203;DHT22;41077;52.956;6.796;2023-03-25T11:39:23;10.70;99.90
55203;DHT22;41077;52.956;6.796;2023-03-25T11:41:49;10.90;99.90
55203;DHT22;41077;52.956;6.796;2023-03-25T11:44:28;11.10;99.90
55203;DHT22;41077;52.956;6.796;2023-03-25T11:46:59;11.40;99.90
55203;DHT22;41077;52.956;6.796;2023-03-25T11:49:26;11.50;99.90
55203;DHT22;41077;52.956;6.796;2023-03-25T11:52:01;11.80;99.90
55203;DHT22;41077;52.956;6.796;2023-03-25T11:54:27;11.90;99.90
55203;DHT22;41077;52.956;6.796;2023-03-25T11:56:53;11.90;99.90
55203;DHT22;41077;52.956;6.796;2023-03-25T12:01:48;11.90;99.90
55203;DHT22;41077;52.956;6.796;2023-03-25T12:06:53;12.10;99.90
55203;DHT22;41077;52.956;6.796;2023-03-25T12:09:21;12.10;99.90
55203;DHT22;41077;52.956;6.796;2023-03-25T12:35:07;11.70;99.90
55203;DHT22;41077;52.956;6.796;2023-03-25T12:52:46;12.40;99.90
55203;DHT22;41077;52.956;6.796;2023-03-25T12:55:28;12.40;99.90
55203;DHT22;41077;52.956;6.796;2023-03-25T13:08:51;12.10;99.90
55203;DHT22;41077;52.956;6.796;2023-03-25T13:11:41;12.10;99.90
55203;DHT22;41077;52.956;6.796;2023-03-25T13:14:07;12.30;99.90
55203;DHT22;41077;52.956;6.796;2023-03-25T13:16:35;12.60;99.90
55203;DHT22;41077;52.956;6.796;2023-03-25T13:19:04;12.80;99.90
55203;DHT22;41077;52.956;6.796;2023-03-25T13:21:31;12.90;99.90
55203;DHT22;41077;52.956;6.796;2023-03-25T13:24:22;12.90;99.90
55203;DHT22;41077;52.956;6.796;2023-03-25T13:26:45;12.80;99.90
55203;DHT22;41077;52.956;6.796;2023-03-25T13:32:17;12.60;99.90
55203;DHT22;41077;52.956;6.796;2023-03-25T13:34:51;12.80;99.90
55203;DHT22;41077;52.956;6.796;2023-03-25T13:37:25;12.90;99.90
55203;DHT22;41077;52.956;6.796;2023-03-25T13:42:26;13.10;99.90
55203;DHT22;41077;52.956;6.796;2023-03-25T13:44:55;13.00;99.90
55203;DHT22;41077;52.956;6.796;2023-03-25T13:49:56;12.60;99.90
55203;DHT22;41077;52.956;6.796;2023-03-25T13:52:25;12.50;99.90
55203;DHT22;41077;52.956;6.796;2023-03-25T14:00:06;12.30;99.90
55203;DHT22;41077;52.956;6.796;2023-03-25T14:10:51;12.20;99.90
55203;DHT22;41077;52.956;6.796;2023-03-25T14:13:21;12.10;99.90
55203;DHT22;41077;52.956;6.796;2023-03-25T14:15:59;12.00;99.90
55203;DHT22;41077;52.956;6.796;2023-03-25T14:18:26;12.00;99.90
55203;DHT22;41077;52.956;6.796;2023-03-25T14:20:57;12.00;99.90
55203;DHT22;41077;52.956;6.796;2023-03-25T14:23:23;11.90;99.90
55203;DHT22;41077;52.956;6.796;2023-03-25T14:25:54;11.80;99.90
55203;DHT22;41077;52.956;6.796;2023-03-25T14:28:32;11.70;99.90
55203;DHT22;41077;52.956;6.796;2023-03-25T14:31:23;11.40;99.90
55203;DHT22;41077;52.956;6.796;2023-03-25T14:36:27;10.30;99.90
55203;DHT22;41077;52.956;6.796;2023-03-25T14:38:53;9.60;99.90
55203;DHT22;41077;52.956;6.796;2023-03-25T14:44:17;8.70;99.90
55203;DHT22;41077;52.956;6.796;2023-03-25T14:46:43;8.50;99.90
55203;DHT22;41077;52.956;6.796;2023-03-25T14:49:20;8.30;99.90
55203;DHT22;41077;52.956;6.796;2023-03-25T14:51:50;8.20;99.90
55203;DHT22;41077;52.956;6.796;2023-03-25T14:54:26;8.10;99.90
55203;DHT22;41077;52.956;6.796;2023-03-25T14:59:38;8.30;99.90
55203;DHT22;41077;52.956;6.796;2023-03-25T15:02:16;8.30;99.90
55203;DHT22;41077;52.956;6.796;2023-03-25T15:04:44;8.40;99.90
55203;DHT22;41077;52.956;6.796;2023-03-25T15:07:16;8.40;99.90
55203;DHT22;41077;52.956;6.796;2023-03-25T15:09:48;8.50;99.90
55203;DHT22;41077;52.956;6.796;2023-03-25T15:12:14;8.60;99.90
55203;DHT22;41077;52.956;6.796;2023-03-25T15:14:41;8.60;99.90
55203;DHT22;41077;52.956;6.796;2023-03-25T15:17:37;8.70;99.90
55203;DHT22;41077;52.956;6.796;2023-03-25T15:22:29;8.90;99.90
55203;DHT22;41077;52.956;6.796;2023-03-25T15:24:58;9.00;99.90
55203;DHT22;41077;52.956;6.796;2023-03-25T15:29:56;9.10;99.90
55203;DHT22;41077;52.956;6.796;2023-03-25T15:55:22;10.30;99.90
55203;DHT22;41077;52.956;6.796;2023-03-25T16:00:54;9.90;99.90
55203;DHT22;41077;52.956;6.796;2023-03-25T16:03:21;9.70;99.90
55203;DHT22;41077;52.956;6.796;2023-03-25T16:05:49;9.60;99.90
55203;DHT22;41077;52.956;6.796;2023-03-25T16:08:16;9.50;99.90
55203;DHT22;41077;52.956;6.796;2023-03-25T16:10:44;9.50;99.90
55203;DHT22;41077;52.956;6.796;2023-03-25T16:13:11;9.50;99.90
55203;DHT22;41077;52.956;6.796;2023-03-25T16:15:37;9.60;99.90
55203;DHT22;41077;52.956;6.796;2023-03-25T16:18:05;9.50;99.90
55203;DHT22;41077;52.956;6.796;2023-03-25T16:20:32;9.40;99.90
55203;DHT22;41077;52.956;6.796;2023-03-25T16:22:58;9.50;99.90
55203;DHT22;41077;52.956;6.796;2023-03-25T16:25:31;9.50;99.90
55203;DHT22;41077;52.956;6.796;2023-03-25T16:28:00;9.40;99.90
55203;DHT22;41077;52.956;6.796;2023-03-25T16:30:28;9.40;99.90
55203;DHT22;41077;52.956;6.796;2023-03-25T16:33:31;9.40;99.90
55203;DHT22;41077;52.956;6.796;2023-03-25T16:35:50;9.50;99.90
55203;DHT22;41077;52.956;6.796;2023-03-25T16:38:18;9.50;99.90
55203;DHT22;41077;52.956;6.796;2023-03-25T16:40:44;9.60;99.90
55203;DHT22;41077;52.956;6.796;2023-03-25T16:43:15;9.60;99.90
55203;DHT22;41077;52.956;6.796;2023-03-25T16:45:42;9.50;99.90
55203;DHT22;41077;52.956;6.796;2023-03-25T16:48:12;9.70;99.90
55203;DHT22;41077;52.956;6.796;2023-03-25T16:50:39;9.60;99.90
55203;DHT22;41077;52.956;6.796;2023-03-25T16:53:06;9.60;99.90
55203;DHT22;41077;52.956;6.796;2023-03-25T16:55:41;9.50;99.90
55203;DHT22;41077;52.956;6.796;2023-03-25T16:58:12;9.50;99.90
55203;DHT22;41077;52.956;6.796;2023-03-25T17:00:40;9.50;99.90
55203;DHT22;41077;52.956;6.796;2023-03-25T17:03:14;9.50;99.90
55203;DHT22;41077;52.956;6.796;2023-03-25T17:05:51;9.50;99.90
55203;DHT22;41077;52.956;6.796;2023-03-25T17:08:18;9.50;99.90
55203;DHT22;41077;52.956;6.796;2023-03-25T17:10:46;9.50;99.90
55203;DHT22;41077;52.956;6.796;2023-03-25T17:13:13;9.50;99.90
55203;DHT22;41077;52.956;6.796;2023-03-25T17:15:41;9.40;99.90
55203;DHT22;41077;52.956;6.796;2023-03-25T17:18:08;9.40;99.90
55203;DHT22;41077;52.956;6.796;2023-03-25T17:20:37;9.50;99.90
55203;DHT22;41077;52.956;6.796;2023-03-25T17:34:04;9.20;99.90
55203;DHT22;41077;52.956;6.796;2023-03-25T17:36:31;9.20;99.90
55203;DHT22;41077;52.956;6.796;2023-03-25T17:38:58;9.20;99.90
55203;DHT22;41077;52.956;6.796;2023-03-25T17:41:28;9.30;99.90
55203;DHT22;41077;52.956;6.796;2023-03-25T17:43:54;9.30;99.90
55203;DHT22;41077;52.956;6.796;2023-03-25T17:46:23;9.30;99.90
55203;DHT22;41077;52.956;6.796;2023-03-25T17:48:50;9.30;99.90
55203;DHT22;41077;52.956;6.796;2023-03-25T17:51:18;9.40;99.90
55203;DHT22;41077;52.956;6.796;2023-03-25T17:53:43;9.30;99.90
55203;DHT22;41077;52.956;6.796;2023-03-25T17:56:12;9.30;99.90
55203;DHT22;41077;52.956;6.796;2023-03-25T17:58:41;9.30;99.90
55203;DHT22;41077;52.956;6.796;2023-03-25T18:01:08;9.30;99.90
55203;DHT22;41077;52.956;6.796;2023-03-25T18:03:35;9.30;99.90
55203;DHT22;41077;52.956;6.796;2023-03-25T18:06:01;9.20;99.90
55203;DHT22;41077;52.956;6.796;2023-03-25T18:08:27;9.20;99.90
55203;DHT22;41077;52.956;6.796;2023-03-25T18:10:53;9.20;99.90
55203;DHT22;41077;52.956;6.796;2023-03-25T18:13:19;9.30;99.90
55203;DHT22;41077;52.956;6.796;2023-03-25T18:15:51;9.20;99.90
55203;DHT22;41077;52.956;6.796;2023-03-25T18:18:19;9.30;99.90
55203;DHT22;41077;52.956;6.796;2023-03-25T18:20:45;9.20;99.90
55203;DHT22;41077;52.956;6.796;2023-03-25T18:23:11;9.30;99.90
55203;DHT22;41077;52.956;6.796;2023-03-25T18:25:37;9.20;99.90
55203;DHT22;41077;52.956;6.796;2023-03-25T18:28:03;9.20;99.90
55203;DHT22;41077;52.956;6.796;2023-03-25T18:30:30;9.20;99.90
55203;DHT22;41077;52.956;6.796;2023-03-25T18:32:58;9.20;99.90
55203;DHT22;41077;52.956;6.796;2023-03-25T18:35:24;9.30;99.90
55203;DHT22;41077;52.956;6.796;2023-03-25T18:37:49;9.30;99.90
55203;DHT22;41077;52.956;6.796;2023-03-25T18:40:22;9.30;99.90
55203;DHT22;41077;52.956;6.796;2023-03-25T18:42:49;9.20;99.90
55203;DHT22;41077;52.956;6.796;2023-03-25T18:45:15;9.20;99.90